sensor_id;sensor_type;location;lat;lon;timestamp;temperature;humidity
31729;DHT22;18309;43.658;1.312;2022-12-08T00:00:38;7.60;99.30
31729;DHT22;18309;43.658;1.312;2022-12-08T00:03:04;7.60;99.20
31729;DHT22;18309;43.658;1.312;2022-12-08T00:05:31;7.50;99.10
31729;DHT22;18309;43.658;1.312;2022-12-08T00:08:15;7.50;99.20
31729;DHT22;18309;43.658;1.312;2022-12-08T00:10:59;7.50;99.30
31729;DHT22;18309;43.658;1.312;2022-12-08T00:13:25;7.50;99.30
31729;DHT22;18309;43.658;1.312;2022-12-08T00:15:50;7.50;99.30
31729;DHT22;18309;43.658;1.312;2022-12-08T00:18:16;7.50;99.20
31729;DHT22;18309;43.658;1.312;2022-12-08T00:20:42;7.40;99.00
31729;DHT22;18309;43.658;1.312;2022-12-08T00:23:07;7.40;99.10
31729;DHT22;18309;43.658;1.312;2022-12-08T00:25:36;7.40;99.20
31729;DHT22;18309;43.658;1.312;2022-12-08T00:28:02;7.40;99.20
31729;DHT22;18309;43.658;1.312;2022-12-08T00:30:28;7.40;99.30
31729;DHT22;18309;43.658;1.312;2022-12-08T00:32:53;7.40;99.30
31729;DHT22;18309;43.658;1.312;2022-12-08T00:35:19;7.40;99.30
31729;DHT22;18309;43.658;1.312;2022-12-08T00:37:45;7.40;99.40
31729;DHT22;18309;43.658;1.312;2022-12-08T00:40:11;7.40;99.40
31729;DHT22;18309;43.658;1.312;2022-12-08T00:42:36;7.40;99.60
31729;DHT22;18309;43.658;1.312;2022-12-08T00:45:02;7.40;99.60
31729;DHT22;18309;43.658;1.312;2022-12-08T00:47:28;7.40;99.80
31729;DHT22;18309;43.658;1.312;2022-12-08T00:49:54;7.40;99.90
31729;DHT22;18309;43.658;1.312;2022-12-08T00:52:19;7.50;99.90
31729;DHT22;18309;43.658;1.312;2022-12-08T00:54:45;7.50;99.90
31729;DHT22;18309;43.658;1.312;2022-12-08T00:57:11;7.50;99.90
31729;DHT22;18309;43.658;1.312;2022-12-08T00:59:37;7.50;99.90
31729;DHT22;18309;43.658;1.312;2022-12-08T01:02:02;7.50;99.90
31729;DHT22;18309;43.658;1.312;2022-12-08T01:04:28;7.50;99.90
31729;DHT22;18309;43.658;1.312;2022-12-08T01:06:54;7.50;99.90
31729;DHT22;18309;43.658;1.312;2022-12-08T01:09:19;7.50;99.90
31729;DHT22;18309;43.658;1.312;2022-12-08T01:11:45;7.50;99.90
31729;DHT22;18309;43.658;1.312;2022-12-08T01:14:12;7.60;99.90
31729;DHT22;18309;43.658;1.312;2022-12-08T01:16:38;7.60;99.90
31729;DHT22;18309;43.658;1.312;2022-12-08T01:19:06;7.60;99.90
31729;DHT22;18309;43.658;1.312;2022-12-08T01:21:32;7.60;99.90
31729;DHT22;18309;43.658;1.312;2022-12-08T01:23:59;7.60;99.90
31729;DHT22;18309;43.658;1.312;2022-12-08T01:26:25;7.60;99.90
31729;DHT22;18309;43.658;1.312;2022-12-08T01:28:51;7.60;99.90
31729;DHT22;18309;43.658;1.312;2022-12-08T01:31:19;7.60;99.90
31729;DHT22;18309;43.658;1.312;2022-12-08T01:33:46;7.60;99.90
31729;DHT22;18309;43.658;1.312;2022-12-08T01:36:21;7.60;99.90
31729;DHT22;18309;43.658;1.312;2022-12-08T01:38:48;7.70;99.90
31729;DHT22;18309;43.658;1.312;2022-12-08T01:41:16;7.60;99.90
31729;DHT22;18309;43.658;1.312;2022-12-08T01:46:16;7.70;99.90
31729;DHT22;18309;43.658;1.312;2022-12-08T01:48:42;7.80;99.90
31729;DHT22;18309;43.658;1.312;2022-12-08T01:51:08;7.70;99.90
31729;DHT22;18309;43.658;1.312;2022-12-08T01:53:34;7.70;99.90
31729;DHT22;18309;43.658;1.312;2022-12-08T01:56:14;7.70;99.90
31729;DHT22;18309;43.658;1.312;2022-12-08T01:58:44;7.80;99.90
31729;DHT22;18309;43.658;1.312;2022-12-08T02:01:11;7.80;99.90
31729;DHT22;18309;43.658;1.312;2022-12-08T02:03:56;7.80;99.90
31729;DHT22;18309;43.658;1.312;2022-12-08T02:06:23;7.70;99.90
31729;DHT22;18309;43.658;1.312;2022-12-08T02:08:50;7.80;99.90
31729;DHT22;18309;43.658;1.312;2022-12-08T02:11:16;7.80;99.90
31729;DHT22;18309;43.658;1.312;2022-12-08T02:13:43;7.70;99.90
31729;DHT22;18309;43.658;1.312;2022-12-08T02:21:59;7.80;99.90
31729;DHT22;18309;43.658;1.312;2022-12-08T02:27:51;7.80;99.90
31729;DHT22;18309;43.658;1.312;2022-12-08T02:35:58;7.80;99.90
31729;DHT22;18309;43.658;1.312;2022-12-08T02:43:42;7.80;99.90
31729;DHT22;18309;43.658;1.312;2022-12-08T02:46:33;7.80;99.90
31729;DHT22;18309;43.658;1.312;2022-12-08T02:49:00;7.80;99.90
31729;DHT22;18309;43.658;1.312;2022-12-08T02:51:26;7.80;99.90
31729;DHT22;18309;43.658;1.312;2022-12-08T02:53:52;7.80;99.90
31729;DHT22;18309;43.658;1.312;2022-12-08T03:01:50;7.80;99.90
31729;DHT22;18309;43.658;1.312;2022-12-08T03:04:43;7.80;99.90
31729;DHT22;18309;43.658;1.312;2022-12-08T03:09:53;7.90;99.90
31729;DHT22;18309;43.658;1.312;2022-12-08T03:12:42;7.80;99.90
31729;DHT22;18309;43.658;1.312;2022-12-08T03:15:13;7.90;99.90
31729;DHT22;18309;43.658;1.312;2022-12-08T03:17:43;7.90;99.90
31729;DHT22;18309;43.658;1.312;2022-12-08T03:20:13;7.90;99.90
31729;DHT22;18309;43.658;1.312;2022-12-08T03:22:40;7.90;99.90
31729;DHT22;18309;43.658;1.312;2022-12-08T03:25:20;7.90;99.90
31729;DHT22;18309;43.658;1.312;2022-12-08T03:27:47;7.90;99.90
31729;DHT22;18309;43.658;1.312;2022-12-08T03:30:13;7.90;99.90
31729;DHT22;18309;43.658;1.312;2022-12-08T03:32:50;7.90;99.90
31729;DHT22;18309;43.658;1.312;2022-12-08T03:35:23;7.90;99.90
31729;DHT22;18309;43.658;1.312;2022-12-08T03:37:49;7.90;99.90
31729;DHT22;18309;43.658;1.312;2022-12-08T03:40:18;7.90;99.90
31729;DHT22;18309;43.658;1.312;2022-12-08T03:42:44;7.90;99.90
31729;DHT22;18309;43.658;1.312;2022-12-08T03:45:10;8.00;99.90
31729;DHT22;18309;43.658;1.312;2022-12-08T03:47:36;7.90;99.90
31729;DHT22;18309;43.658;1.312;2022-12-08T03:50:02;8.00;99.90
31729;DHT22;18309;43.658;1.312;2022-12-08T03:52:28;8.00;99.90
31729;DHT22;18309;43.658;1.312;2022-12-08T03:54:53;8.00;99.90
31729;DHT22;18309;43.658;1.312;2022-12-08T03:57:19;8.00;99.90
31729;DHT22;18309;43.658;1.312;2022-12-08T03:59:46;8.00;99.90
31729;DHT22;18309;43.658;1.312;2022-12-08T04:02:11;8.00;99.90
31729;DHT22;18309;43.658;1.312;2022-12-08T04:04:37;8.00;99.90
31729;DHT22;18309;43.658;1.312;2022-12-08T04:07:03;8.00;99.90
31729;DHT22;18309;43.658;1.312;2022-12-08T04:09:28;8.00;99.90
31729;DHT22;18309;43.658;1.312;2022-12-08T04:11:54;8.00;99.90
31729;DHT22;18309;43.658;1.312;2022-12-08T04:14:20;8.00;99.90
31729;DHT22;18309;43.658;1.312;2022-12-08T04:16:45;8.00;99.90
31729;DHT22;18309;43.658;1.312;2022-12-08T04:19:11;8.00;99.90
31729;DHT22;18309;43.658;1.312;2022-12-08T04:21:37;8.00;99.90
31729;DHT22;18309;43.658;1.312;2022-12-08T04:24:02;8.00;99.90
31729;DHT22;18309;43.658;1.312;2022-12-08T04:26:28;8.00;99.90
31729;DHT22;18309;43.658;1.312;2022-12-08T04:28:54;8.00;99.90
31729;DHT22;18309;43.658;1.312;2022-12-08T04:31:19;8.00;99.90
31729;DHT22;18309;43.658;1.312;2022-12-08T04:33:45;8.00;99.90
31729;DHT22;18309;43.658;1.312;2022-12-08T04:36:11;8.00;99.90
31729;DHT22;18309;43.658;1.312;2022-12-08T04:38:37;8.10;99.90
31729;DHT22;18309;43.658;1.312;2022-12-08T04:41:02;8.00;99.90
31729;DHT22;18309;43.658;1.312;2022-12-08T04:43:28;8.10;99.90
31729;DHT22;18309;43.658;1.312;2022-12-08T04:45:54;8.10;99.90
31729;DHT22;18309;43.658;1.312;2022-12-08T04:48:20;8.10;99.90
31729;DHT22;18309;43.658;1.312;2022-12-08T04:50:46;8.10;99.90
31729;DHT22;18309;43.658;1.312;2022-12-08T04:53:12;8.10;99.90
31729;DHT22;18309;43.658;1.312;2022-12-08T04:55:42;8.10;99.90
31729;DHT22;18309;43.658;1.312;2022-12-08T04:58:12;8.10;99.90
31729;DHT22;18309;43.658;1.312;2022-12-08T05:00:38;8.10;99.90
31729;DHT22;18309;43.658;1.312;2022-12-08T05:03:04;8.10;99.90
31729;DHT22;18309;43.658;1.312;2022-12-08T05:05:30;8.10;99.90
31729;DHT22;18309;43.658;1.312;2022-12-08T05:07:55;8.10;99.90
31729;DHT22;18309;43.658;1.312;2022-12-08T05:10:21;8.10;99.90
31729;DHT22;18309;43.658;1.312;2022-12-08T05:12:47;8.10;99.90
31729;DHT22;18309;43.658;1.312;2022-12-08T05:15:12;8.10;99.90
31729;DHT22;18309;43.658;1.312;2022-12-08T05:17:38;8.10;99.90
31729;DHT22;18309;43.658;1.312;2022-12-08T05:20:05;8.10;99.90
31729;DHT22;18309;43.658;1.312;2022-12-08T05:22:31;8.10;99.90
31729;DHT22;18309;43.658;1.312;2022-12-08T05:24:56;8.10;99.90
31729;DHT22;18309;43.658;1.312;2022-12-08T05:27:22;8.10;99.90
31729;DHT22;18309;43.658;1.312;2022-12-08T05:29:47;8.10;99.90
31729;DHT22;18309;43.658;1.312;2022-12-08T05:32:15;8.10;99.90
31729;DHT22;18309;43.658;1.312;2022-12-08T05:34:41;8.10;99.90
31729;DHT22;18309;43.658;1.312;2022-12-08T05:37:06;8.10;99.90
31729;DHT22;18309;43.658;1.312;2022-12-08T05:39:32;8.10;99.90
31729;DHT22;18309;43.658;1.312;2022-12-08T05:41:58;8.10;99.90
31729;DHT22;18309;43.658;1.312;2022-12-08T05:44:24;8.10;99.90
31729;DHT22;18309;43.658;1.312;2022-12-08T05:46:50;8.10;99.90
31729;DHT22;18309;43.658;1.312;2022-12-08T05:49:16;8.10;99.90
31729;DHT22;18309;43.658;1.312;2022-12-08T05:51:42;8.10;99.90
31729;DHT22;18309;43.658;1.312;2022-12-08T05:54:08;8.10;99.90
31729;DHT22;18309;43.658;1.312;2022-12-08T05:56:33;8.10;99.90
31729;DHT22;18309;43.658;1.312;2022-12-08T05:58:59;8.10;99.90
31729;DHT22;18309;43.658;1.312;2022-12-08T06:01:28;8.10;99.90
31729;DHT22;18309;43.658;1.312;2022-12-08T06:03:54;8.10;99.90
31729;DHT22;18309;43.658;1.312;2022-12-08T06:06:21;8.20;99.90
31729;DHT22;18309;43.658;1.312;2022-12-08T06:08:47;8.20;99.90
31729;DHT22;18309;43.658;1.312;2022-12-08T06:11:26;8.20;99.90
31729;DHT22;18309;43.658;1.312;2022-12-08T06:13:53;8.20;99.90
31729;DHT22;18309;43.658;1.312;2022-12-08T06:16:20;8.20;99.90
31729;DHT22;18309;43.658;1.312;2022-12-08T06:18:46;8.20;99.90
31729;DHT22;18309;43.658;1.312;2022-12-08T06:21:14;8.20;99.90
31729;DHT22;18309;43.658;1.312;2022-12-08T06:23:40;8.20;99.90
31729;DHT22;18309;43.658;1.312;2022-12-08T06:26:11;8.20;99.90
31729;DHT22;18309;43.658;1.312;2022-12-08T06:28:37;8.20;99.90
31729;DHT22;18309;43.658;1.312;2022-12-08T06:31:17;8.20;99.90
31729;DHT22;18309;43.658;1.312;2022-12-08T06:33:43;8.20;99.90
31729;DHT22;18309;43.658;1.312;2022-12-08T06:36:11;8.20;99.90
31729;DHT22;18309;43.658;1.312;2022-12-08T06:38:37;8.20;99.90
31729;DHT22;18309;43.658;1.312;2022-12-08T06:41:03;8.20;99.90
31729;DHT22;18309;43.658;1.312;2022-12-08T06:43:30;8.20;99.90
31729;DHT22;18309;43.658;1.312;2022-12-08T06:45:56;8.20;99.90
31729;DHT22;18309;43.658;1.312;2022-12-08T06:48:22;8.20;99.90
31729;DHT22;18309;43.658;1.312;2022-12-08T06:50:48;8.20;99.90
31729;DHT22;18309;43.658;1.312;2022-12-08T06:53:14;8.30;99.90
31729;DHT22;18309;43.658;1.312;2022-12-08T06:55:51;8.30;99.90
31729;DHT22;18309;43.658;1.312;2022-12-08T06:58:17;8.30;99.90
31729;DHT22;18309;43.658;1.312;2022-12-08T07:00:43;8.30;99.90
31729;DHT22;18309;43.658;1.312;2022-12-08T07:03:10;8.30;99.90
31729;DHT22;18309;43.658;1.312;2022-12-08T07:05:36;8.30;99.90
31729;DHT22;18309;43.658;1.312;2022-12-08T07:08:03;8.30;99.90
31729;DHT22;18309;43.658;1.312;2022-12-08T07:10:29;8.30;99.90
31729;DHT22;18309;43.658;1.312;2022-12-08T07:12:55;8.20;99.90
31729;DHT22;18309;43.658;1.312;2022-12-08T07:15:21;8.00;99.90
31729;DHT22;18309;43.658;1.312;2022-12-08T07:17:47;7.80;99.90
31729;DHT22;18309;43.658;1.312;2022-12-08T07:20:13;7.80;99.90
31729;DHT22;18309;43.658;1.312;2022-12-08T07:22:39;7.80;99.90
31729;DHT22;18309;43.658;1.312;2022-12-08T07:25:06;7.80;99.90
31729;DHT22;18309;43.658;1.312;2022-12-08T07:27:32;7.80;99.90
31729;DHT22;18309;43.658;1.312;2022-12-08T07:29:57;7.80;99.90
31729;DHT22;18309;43.658;1.312;2022-12-08T07:32:23;7.80;99.90
31729;DHT22;18309;43.658;1.312;2022-12-08T07:34:49;7.80;99.90
31729;DHT22;18309;43.658;1.312;2022-12-08T07:37:14;7.80;99.90
31729;DHT22;18309;43.658;1.312;2022-12-08T07:39:40;7.80;99.90
31729;DHT22;18309;43.658;1.312;2022-12-08T07:42:06;7.80;99.90
31729;DHT22;18309;43.658;1.312;2022-12-08T07:44:32;7.70;99.90
31729;DHT22;18309;43.658;1.312;2022-12-08T07:46:57;7.70;99.90
31729;DHT22;18309;43.658;1.312;2022-12-08T07:49:23;7.70;99.90
31729;DHT22;18309;43.658;1.312;2022-12-08T07:51:49;7.70;99.90
31729;DHT22;18309;43.658;1.312;2022-12-08T07:54:14;7.70;99.90
31729;DHT22;18309;43.658;1.312;2022-12-08T07:56:40;7.70;99.90
31729;DHT22;18309;43.658;1.312;2022-12-08T07:59:06;7.70;99.90
31729;DHT22;18309;43.658;1.312;2022-12-08T08:01:32;7.70;99.90
31729;DHT22;18309;43.658;1.312;2022-12-08T08:04:01;7.70;99.90
31729;DHT22;18309;43.658;1.312;2022-12-08T08:06:30;7.60;99.90
31729;DHT22;18309;43.658;1.312;2022-12-08T08:08:56;7.60;99.90
31729;DHT22;18309;43.658;1.312;2022-12-08T08:11:21;7.60;99.90
31729;DHT22;18309;43.658;1.312;2022-12-08T08:13:51;7.70;99.90
31729;DHT22;18309;43.658;1.312;2022-12-08T08:16:17;7.70;99.90
31729;DHT22;18309;43.658;1.312;2022-12-08T08:18:48;7.70;99.90
31729;DHT22;18309;43.658;1.312;2022-12-08T08:21:14;7.80;99.90
31729;DHT22;18309;43.658;1.312;2022-12-08T08:23:40;7.70;99.90
31729;DHT22;18309;43.658;1.312;2022-12-08T08:26:05;7.70;99.90
31729;DHT22;18309;43.658;1.312;2022-12-08T08:28:32;7.70;99.90
31729;DHT22;18309;43.658;1.312;2022-12-08T08:30:59;7.80;99.90
31729;DHT22;18309;43.658;1.312;2022-12-08T08:33:24;7.80;99.90
31729;DHT22;18309;43.658;1.312;2022-12-08T08:35:52;7.80;99.90
31729;DHT22;18309;43.658;1.312;2022-12-08T08:38:18;7.80;99.90
31729;DHT22;18309;43.658;1.312;2022-12-08T08:40:44;7.90;99.90
31729;DHT22;18309;43.658;1.312;2022-12-08T08:43:09;7.90;99.90
31729;DHT22;18309;43.658;1.312;2022-12-08T08:45:57;8.00;99.90
31729;DHT22;18309;43.658;1.312;2022-12-08T08:48:23;8.00;99.90
31729;DHT22;18309;43.658;1.312;2022-12-08T08:50:49;8.00;99.90
31729;DHT22;18309;43.658;1.312;2022-12-08T08:53:14;8.00;99.90
31729;DHT22;18309;43.658;1.312;2022-12-08T08:55:40;8.00;99.90
31729;DHT22;18309;43.658;1.312;2022-12-08T08:58:06;8.10;99.90
31729;DHT22;18309;43.658;1.312;2022-12-08T09:00:31;8.00;99.90
31729;DHT22;18309;43.658;1.312;2022-12-08T09:02:57;8.10;99.90
31729;DHT22;18309;43.658;1.312;2022-12-08T09:05:23;8.10;99.90
31729;DHT22;18309;43.658;1.312;2022-12-08T09:07:48;8.10;99.90
31729;DHT22;18309;43.658;1.312;2022-12-08T09:10:14;8.20;99.90
31729;DHT22;18309;43.658;1.312;2022-12-08T09:12:40;8.20;99.90
31729;DHT22;18309;43.658;1.312;2022-12-08T09:15:06;8.20;99.90
31729;DHT22;18309;43.658;1.312;2022-12-08T09:17:31;8.10;99.90
31729;DHT22;18309;43.658;1.312;2022-12-08T09:19:57;8.10;99.90
31729;DHT22;18309;43.658;1.312;2022-12-08T09:22:23;8.10;99.90
31729;DHT22;18309;43.658;1.312;2022-12-08T09:24:49;8.10;99.90
31729;DHT22;18309;43.658;1.312;2022-12-08T09:27:15;8.10;99.90
31729;DHT22;18309;43.658;1.312;2022-12-08T09:29:40;8.20;99.90
31729;DHT22;18309;43.658;1.312;2022-12-08T09:32:06;8.20;99.90
31729;DHT22;18309;43.658;1.312;2022-12-08T09:34:32;8.30;99.90
31729;DHT22;18309;43.658;1.312;2022-12-08T09:36:57;8.30;99.90
31729;DHT22;18309;43.658;1.312;2022-12-08T09:39:23;8.30;99.90
31729;DHT22;18309;43.658;1.312;2022-12-08T09:41:52;8.20;99.90
31729;DHT22;18309;43.658;1.312;2022-12-08T09:47:19;8.30;99.90
31729;DHT22;18309;43.658;1.312;2022-12-08T09:52:41;8.40;99.90
31729;DHT22;18309;43.658;1.312;2022-12-08T09:55:24;8.50;99.90
31729;DHT22;18309;43.658;1.312;2022-12-08T09:58:00;8.50;99.90
31729;DHT22;18309;43.658;1.312;2022-12-08T10:00:27;8.50;99.90
31729;DHT22;18309;43.658;1.312;2022-12-08T10:02:52;8.50;99.90
31729;DHT22;18309;43.658;1.312;2022-12-08T10:05:20;8.60;99.90
31729;DHT22;18309;43.658;1.312;2022-12-08T10:08:07;8.60;99.90
31729;DHT22;18309;43.658;1.312;2022-12-08T10:10:47;8.60;99.90
31729;DHT22;18309;43.658;1.312;2022-12-08T10:19:04;8.60;99.90
31729;DHT22;18309;43.658;1.312;2022-12-08T10:21:35;8.70;99.90
31729;DHT22;18309;43.658;1.312;2022-12-08T10:24:52;8.80;99.90
31729;DHT22;18309;43.658;1.312;2022-12-08T10:26:53;8.90;99.90
31729;DHT22;18309;43.658;1.312;2022-12-08T10:29:19;9.00;99.90
31729;DHT22;18309;43.658;1.312;2022-12-08T10:31:45;9.10;99.90
31729;DHT22;18309;43.658;1.312;2022-12-08T10:34:17;9.30;99.90
31729;DHT22;18309;43.658;1.312;2022-12-08T10:36:57;9.50;99.90
31729;DHT22;18309;43.658;1.312;2022-12-08T10:39:41;9.70;99.90
31729;DHT22;18309;43.658;1.312;2022-12-08T10:47:21;10.00;99.90
31729;DHT22;18309;43.658;1.312;2022-12-08T10:49:47;9.90;99.90
31729;DHT22;18309;43.658;1.312;2022-12-08T10:52:30;10.00;99.90
31729;DHT22;18309;43.658;1.312;2022-12-08T10:54:59;9.90;99.90
31729;DHT22;18309;43.658;1.312;2022-12-08T10:57:25;10.00;99.90
31729;DHT22;18309;43.658;1.312;2022-12-08T10:59:53;10.20;99.90
31729;DHT22;18309;43.658;1.312;2022-12-08T11:02:20;10.00;99.90
31729;DHT22;18309;43.658;1.312;2022-12-08T11:04:46;10.00;99.90
31729;DHT22;18309;43.658;1.312;2022-12-08T11:07:20;10.10;99.90
31729;DHT22;18309;43.658;1.312;2022-12-08T11:09:48;10.10;99.90
31729;DHT22;18309;43.658;1.312;2022-12-08T11:12:19;10.20;99.90
31729;DHT22;18309;43.658;1.312;2022-12-08T11:14:48;10.10;99.90
31729;DHT22;18309;43.658;1.312;2022-12-08T11:22:44;10.10;99.90
31729;DHT22;18309;43.658;1.312;2022-12-08T11:25:21;10.30;99.90
31729;DHT22;18309;43.658;1.312;2022-12-08T11:27:49;10.30;99.90
31729;DHT22;18309;43.658;1.312;2022-12-08T11:30:19;10.20;99.90
31729;DHT22;18309;43.658;1.312;2022-12-08T11:32:47;10.40;99.90
31729;DHT22;18309;43.658;1.312;2022-12-08T11:35:37;10.20;99.90
31729;DHT22;18309;43.658;1.312;2022-12-08T11:38:09;10.00;99.90
31729;DHT22;18309;43.658;1.312;2022-12-08T11:40:37;10.00;99.90
31729;DHT22;18309;43.658;1.312;2022-12-08T11:45:59;9.90;99.90
31729;DHT22;18309;43.658;1.312;2022-12-08T11:48:32;9.90;99.90
31729;DHT22;18309;43.658;1.312;2022-12-08T11:51:07;9.80;99.90
31729;DHT22;18309;43.658;1.312;2022-12-08T11:56:31;9.90;99.90
31729;DHT22;18309;43.658;1.312;2022-12-08T11:59:11;10.00;99.90
31729;DHT22;18309;43.658;1.312;2022-12-08T12:01:39;9.80;99.90
31729;DHT22;18309;43.658;1.312;2022-12-08T12:09:33;9.90;99.90
31729;DHT22;18309;43.658;1.312;2022-12-08T12:25:49;10.10;99.90
31729;DHT22;18309;43.658;1.312;2022-12-08T12:28:16;10.20;99.90
31729;DHT22;18309;43.658;1.312;2022-12-08T12:30:50;10.30;99.90
31729;DHT22;18309;43.658;1.312;2022-12-08T12:33:18;10.40;99.90
31729;DHT22;18309;43.658;1.312;2022-12-08T12:35:45;10.50;99.90
31729;DHT22;18309;43.658;1.312;2022-12-08T12:38:30;10.50;99.90
31729;DHT22;18309;43.658;1.312;2022-12-08T12:41:22;10.40;99.90
31729;DHT22;18309;43.658;1.312;2022-12-08T12:44:21;10.20;99.90
31729;DHT22;18309;43.658;1.312;2022-12-08T12:57:20;10.10;99.90
31729;DHT22;18309;43.658;1.312;2022-12-08T13:02:30;10.20;99.90
31729;DHT22;18309;43.658;1.312;2022-12-08T13:05:07;10.10;99.90
31729;DHT22;18309;43.658;1.312;2022-12-08T13:15:46;10.00;99.90
31729;DHT22;18309;43.658;1.312;2022-12-08T13:18:40;9.90;99.90
31729;DHT22;18309;43.658;1.312;2022-12-08T13:21:10;9.90;99.90
31729;DHT22;18309;43.658;1.312;2022-12-08T13:26:31;9.80;99.90
31729;DHT22;18309;43.658;1.312;2022-12-08T13:34:16;9.70;99.90
31729;DHT22;18309;43.658;1.312;2022-12-08T13:36:51;9.70;99.90
31729;DHT22;18309;43.658;1.312;2022-12-08T13:42:33;9.70;99.90
31729;DHT22;18309;43.658;1.312;2022-12-08T13:50:16;9.30;99.90
31729;DHT22;18309;43.658;1.312;2022-12-08T13:52:57;9.30;99.90
31729;DHT22;18309;43.658;1.312;2022-12-08T13:55:40;9.20;99.90
31729;DHT22;18309;43.658;1.312;2022-12-08T13:58:15;9.20;99.90
31729;DHT22;18309;43.658;1.312;2022-12-08T14:00:42;9.30;99.90
31729;DHT22;18309;43.658;1.312;2022-12-08T14:03:10;9.30;99.90
31729;DHT22;18309;43.658;1.312;2022-12-08T14:05:40;9.30;99.90
31729;DHT22;18309;43.658;1.312;2022-12-08T14:08:20;9.30;99.90
31729;DHT22;18309;43.658;1.312;2022-12-08T14:10:56;9.30;99.90
31729;DHT22;18309;43.658;1.312;2022-12-08T14:13:23;9.30;99.90
31729;DHT22;18309;43.658;1.312;2022-12-08T14:15:49;9.30;99.90
31729;DHT22;18309;43.658;1.312;2022-12-08T14:18:29;9.10;99.90
31729;DHT22;18309;43.658;1.312;2022-12-08T14:21:13;9.10;99.90
31729;DHT22;18309;43.658;1.312;2022-12-08T14:23:43;9.00;99.90
31729;DHT22;18309;43.658;1.312;2022-12-08T14:26:10;9.00;99.90
31729;DHT22;18309;43.658;1.312;2022-12-08T14:28:36;9.10;99.90
31729;DHT22;18309;43.658;1.312;2022-12-08T14:31:02;9.10;99.90
31729;DHT22;18309;43.658;1.312;2022-12-08T14:33:30;9.00;99.90
31729;DHT22;18309;43.658;1.312;2022-12-08T14:35:55;9.00;99.90
31729;DHT22;18309;43.658;1.312;2022-12-08T14:38:23;8.90;99.90
31729;DHT22;18309;43.658;1.312;2022-12-08T14:41:04;9.00;99.90
31729;DHT22;18309;43.658;1.312;2022-12-08T14:43:31;9.00;99.90
31729;DHT22;18309;43.658;1.312;2022-12-08T14:46:00;8.90;99.90
31729;DHT22;18309;43.658;1.312;2022-12-08T14:53:52;8.80;99.90
31729;DHT22;18309;43.658;1.312;2022-12-08T14:56:34;8.80;99.90
31729;DHT22;18309;43.658;1.312;2022-12-08T14:59:49;8.80;99.90
31729;DHT22;18309;43.658;1.312;2022-12-08T15:02:31;8.80;99.90
31729;DHT22;18309;43.658;1.312;2022-12-08T15:07:25;8.70;99.90
31729;DHT22;18309;43.658;1.312;2022-12-08T15:12:39;8.70;99.90
31729;DHT22;18309;43.658;1.312;2022-12-08T15:22:53;8.60;99.90
31729;DHT22;18309;43.658;1.312;2022-12-08T15:25:19;8.60;99.90
31729;DHT22;18309;43.658;1.312;2022-12-08T15:27:45;8.50;99.90
31729;DHT22;18309;43.658;1.312;2022-12-08T15:30:16;8.50;99.90
31729;DHT22;18309;43.658;1.312;2022-12-08T15:32:42;8.50;99.90
31729;DHT22;18309;43.658;1.312;2022-12-08T15:35:12;8.50;99.90
31729;DHT22;18309;43.658;1.312;2022-12-08T15:37:39;8.40;99.90
31729;DHT22;18309;43.658;1.312;2022-12-08T15:40:06;8.40;99.90
31729;DHT22;18309;43.658;1.312;2022-12-08T15:42:32;8.40;99.90
31729;DHT22;18309;43.658;1.312;2022-12-08T15:44:57;8.50;99.90
31729;DHT22;18309;43.658;1.312;2022-12-08T15:47:23;8.40;99.90
31729;DHT22;18309;43.658;1.312;2022-12-08T15:49:51;8.40;99.90
31729;DHT22;18309;43.658;1.312;2022-12-08T15:52:21;8.40;99.90
31729;DHT22;18309;43.658;1.312;2022-12-08T15:54:47;8.30;99.90
31729;DHT22;18309;43.658;1.312;2022-12-08T15:57:22;8.30;99.90
31729;DHT22;18309;43.658;1.312;2022-12-08T15:59:49;8.60;99.90
31729;DHT22;18309;43.658;1.312;2022-12-08T16:02:15;8.70;99.90
31729;DHT22;18309;43.658;1.312;2022-12-08T16:04:41;8.80;99.90
31729;DHT22;18309;43.658;1.312;2022-12-08T16:07:22;8.90;99.90
31729;DHT22;18309;43.658;1.312;2022-12-08T16:09:49;9.00;99.90
31729;DHT22;18309;43.658;1.312;2022-12-08T16:12:18;9.00;99.90
31729;DHT22;18309;43.658;1.312;2022-12-08T16:15:03;9.10;99.90
31729;DHT22;18309;43.658;1.312;2022-12-08T16:17:29;9.10;99.90
31729;DHT22;18309;43.658;1.312;2022-12-08T16:19:55;9.20;99.90
31729;DHT22;18309;43.658;1.312;2022-12-08T16:22:31;9.20;99.90
31729;DHT22;18309;43.658;1.312;2022-12-08T16:24:57;9.30;99.90
31729;DHT22;18309;43.658;1.312;2022-12-08T16:27:28;9.30;99.90
31729;DHT22;18309;43.658;1.312;2022-12-08T16:29:56;9.30;99.90
31729;DHT22;18309;43.658;1.312;2022-12-08T16:32:22;9.30;99.90
31729;DHT22;18309;43.658;1.312;2022-12-08T16:34:49;9.30;99.90
31729;DHT22;18309;43.658;1.312;2022-12-08T16:37:21;9.30;99.90
31729;DHT22;18309;43.658;1.312;2022-12-08T16:39:47;9.40;99.90
31729;DHT22;18309;43.658;1.312;2022-12-08T16:42:24;9.40;99.90
31729;DHT22;18309;43.658;1.312;2022-12-08T16:45:22;9.40;99.90
31729;DHT22;18309;43.658;1.312;2022-12-08T16:47:59;9.40;99.90
31729;DHT22;18309;43.658;1.312;2022-12-08T16:50:26;9.40;99.90
31729;DHT22;18309;43.658;1.312;2022-12-08T16:53:00;9.40;99.90
31729;DHT22;18309;43.658;1.312;2022-12-08T16:55:26;9.40;99.90
31729;DHT22;18309;43.658;1.312;2022-12-08T16:57:52;9.50;99.90
31729;DHT22;18309;43.658;1.312;2022-12-08T17:00:21;9.50;99.90
31729;DHT22;18309;43.658;1.312;2022-12-08T17:02:47;9.50;99.90
31729;DHT22;18309;43.658;1.312;2022-12-08T17:05:15;9.50;99.90
31729;DHT22;18309;43.658;1.312;2022-12-08T17:07:43;9.50;99.90
31729;DHT22;18309;43.658;1.312;2022-12-08T17:10:11;9.50;99.90
31729;DHT22;18309;43.658;1.312;2022-12-08T17:12:37;9.50;99.90
31729;DHT22;18309;43.658;1.312;2022-12-08T17:15:05;9.50;99.90
31729;DHT22;18309;43.658;1.312;2022-12-08T17:17:32;9.50;99.90
31729;DHT22;18309;43.658;1.312;2022-12-08T17:20:00;9.50;99.90
31729;DHT22;18309;43.658;1.312;2022-12-08T17:22:29;9.50;99.90
31729;DHT22;18309;43.658;1.312;2022-12-08T17:24:55;9.50;99.90
31729;DHT22;18309;43.658;1.312;2022-12-08T17:27:20;9.50;99.90
31729;DHT22;18309;43.658;1.312;2022-12-08T17:29:46;9.50;99.90
31729;DHT22;18309;43.658;1.312;2022-12-08T17:32:12;9.50;99.90
31729;DHT22;18309;43.658;1.312;2022-12-08T17:34:37;9.60;99.90
31729;DHT22;18309;43.658;1.312;2022-12-08T17:37:03;9.50;99.90
31729;DHT22;18309;43.658;1.312;2022-12-08T17:39:29;9.60;99.90
31729;DHT22;18309;43.658;1.312;2022-12-08T17:41:55;9.60;99.90
31729;DHT22;18309;43.658;1.312;2022-12-08T17:44:20;9.60;99.90
31729;DHT22;18309;43.658;1.312;2022-12-08T17:46:46;9.50;99.90
31729;DHT22;18309;43.658;1.312;2022-12-08T17:49:21;9.60;99.90
31729;DHT22;18309;43.658;1.312;2022-12-08T17:51:49;9.60;99.90
31729;DHT22;18309;43.658;1.312;2022-12-08T17:54:16;9.60;99.90
31729;DHT22;18309;43.658;1.312;2022-12-08T17:56:42;9.60;99.90
31729;DHT22;18309;43.658;1.312;2022-12-08T17:59:08;9.50;99.90
31729;DHT22;18309;43.658;1.312;2022-12-08T18:01:34;9.60;99.90
31729;DHT22;18309;43.658;1.312;2022-12-08T18:04:01;9.50;99.90
31729;DHT22;18309;43.658;1.312;2022-12-08T18:06:28;9.60;99.90
31729;DHT22;18309;43.658;1.312;2022-12-08T18:08:55;9.60;99.90